Time;durP1;ratioP1;P1;durP2;ratioP2;P2;SDS_P1;SDS_P2;PMS_P1;PMS_P2;Temp;Humidity;BMP_temperature;BMP_pressure;BME280_temperature;BME280_humidity;BME280_pressure;Samples;Min_cycle;Max_cycle;Signal;HPM_P1;HPM_P2
2021/03/29 00:00:54;;;;;;;7.17;3.47;;;;;;;8.93;56.17;97531.31;5037788;28;20450;-85
2021/03/29 00:03:20;;;;;;;4.40;2.60;;;;;;;8.86;56.47;97537.25;5037721;28;20485;-85
2021/03/29 00:05:47;;;;;;;4.17;2.90;;;;;;;8.87;56.37;97535.28;5038419;28;20774;-84
2021/03/29 00:08:16;;;;;;;9.33;3.00;;;;;;;8.83;56.89;97532.16;5038419;28;20444;-83
2021/03/29 00:10:44;;;;;;;8.33;3.13;;;;;;;8.83;56.84;97529.47;5037916;28;20437;-85
2021/03/29 00:13:11;;;;;;;7.03;3.53;;;;;;;8.76;56.94;97530.72;5037532;28;20426;-84
2021/03/29 00:15:40;;;;;;;10.03;3.50;;;;;;;8.76;57.34;97533.41;5038331;28;20410;-84
2021/03/29 00:18:47;;;;;;;7.40;3.70;;;;;;;8.72;57.56;97542.97;5037948;28;20438;-85
2021/03/29 00:21:13;;;;;;;6.17;2.53;;;;;;;8.73;57.58;97536.38;5037573;28;20491;-83
2021/03/29 00:23:40;;;;;;;6.90;3.80;;;;;;;8.70;57.75;97537.34;5037902;28;20485;-84
2021/03/29 00:26:07;;;;;;;6.10;3.50;;;;;;;8.70;57.71;97538.09;5037862;28;20443;-84
2021/03/29 00:28:33;;;;;;;8.57;3.33;;;;;;;8.75;57.74;97545.41;5037506;28;20493;-84
2021/03/29 00:31:01;;;;;;;5.20;2.90;;;;;;;8.75;57.66;97536.59;5040060;28;20523;-84
2021/03/29 00:33:29;;;;;;;7.17;3.83;;;;;;;8.77;57.63;97542.22;5037577;28;20418;-84
2021/03/29 00:35:57;;;;;;;5.73;3.10;;;;;;;8.75;57.54;97539.28;5038077;28;20512;-83
2021/03/29 00:38:24;;;;;;;8.00;3.03;;;;;;;8.77;57.72;97542.22;5037673;28;20526;-84
2021/03/29 00:40:54;;;;;;;6.53;2.90;;;;;;;8.76;57.55;97544.16;5037999;28;20537;-85
2021/03/29 00:43:23;;;;;;;3.20;2.80;;;;;;;8.80;56.96;97549.28;5037727;28;20867;-84
2021/03/29 00:45:52;;;;;;;7.07;3.57;;;;;;;8.80;56.66;97538.53;5041422;28;20431;-85
2021/03/29 00:48:22;;;;;;;6.53;3.43;;;;;;;8.82;56.60;97544.88;5041980;28;20439;-84
2021/03/29 00:50:51;;;;;;;7.60;3.03;;;;;;;8.85;56.58;97548.50;5041699;28;20441;-84
2021/03/29 00:53:18;;;;;;;4.70;2.60;;;;;;;8.88;56.30;97547.50;5042172;28;20423;-84
2021/03/29 00:55:46;;;;;;;9.13;2.27;;;;;;;8.87;55.83;97556.81;5041634;28;20424;-85
2021/03/29 00:58:14;;;;;;;6.07;2.60;;;;;;;8.87;56.02;97551.44;5041080;28;20766;-84
2021/03/29 01:00:44;;;;;;;7.10;3.53;;;;;;;8.82;55.85;97554.91;5041258;28;20521;-84
2021/03/29 01:03:14;;;;;;;10.07;2.73;;;;;;;8.83;56.10;97550.97;5041911;28;20462;-85
2021/03/29 01:05:41;;;;;;;3.03;1.93;;;;;;;8.84;55.75;97552.44;5041341;28;20878;-84
2021/03/29 01:08:09;;;;;;;5.80;2.10;;;;;;;8.82;55.59;97547.56;5041554;28;20461;-84
2021/03/29 01:10:35;;;;;;;8.50;2.90;;;;;;;8.80;55.91;97543.91;5041383;28;20516;-84
2021/03/29 01:13:08;;;;;;;5.13;2.40;;;;;;;8.79;56.00;97545.88;5041815;28;20608;-84
2021/03/29 01:15:37;;;;;;;4.03;2.60;;;;;;;8.79;55.65;97547.81;5041658;28;20883;-85
2021/03/29 01:18:08;;;;;;;5.00;2.73;;;;;;;8.79;55.79;97548.56;5041109;28;20451;-84
2021/03/29 01:20:48;;;;;;;6.87;2.70;;;;;;;8.79;55.55;97543.19;5041261;28;20550;-84
2021/03/29 01:23:17;;;;;;;7.80;3.27;;;;;;;8.78;55.87;97551.72;5051344;28;20581;-82
2021/03/29 01:25:46;;;;;;;5.43;2.70;;;;;;;8.74;55.69;97546.59;5061324;28;20423;-83
2021/03/29 01:28:18;;;;;;;7.53;3.20;;;;;;;8.71;55.85;97550.31;5055847;28;20442;-83
2021/03/29 01:30:45;;;;;;;5.50;2.63;;;;;;;8.72;55.75;97551.78;5056002;28;20459;-83
2021/03/29 01:33:12;;;;;;;6.20;2.80;;;;;;;8.69;55.57;97554.72;5060126;28;20433;-82
2021/03/29 01:35:41;;;;;;;2.90;2.10;;;;;;;8.63;56.05;97549.38;5056155;28;20398;-84
2021/03/29 01:38:08;;;;;;;7.43;2.63;;;;;;;8.66;55.68;97550.34;5048839;28;20501;-84
2021/03/29 01:40:37;;;;;;;6.53;3.23;;;;;;;8.59;55.94;97556.97;5040488;28;20430;-84
2021/03/29 01:43:06;;;;;;;8.23;2.73;;;;;;;8.60;56.08;97550.38;5040855;28;20446;-84
2021/03/29 01:45:34;;;;;;;8.47;2.40;;;;;;;8.56;55.61;97563.34;5040565;28;20439;-84
2021/03/29 01:48:01;;;;;;;8.20;2.30;;;;;;;8.53;56.09;97561.66;5040661;28;20453;-84
2021/03/29 01:50:29;;;;;;;5.13;2.73;;;;;;;8.51;56.12;97558.72;5039985;28;20433;-84
2021/03/29 01:52:56;;;;;;;4.00;2.10;;;;;;;8.49;55.80;97555.78;5040214;28;20453;-84
2021/03/29 01:55:23;;;;;;;7.10;2.47;;;;;;;8.49;56.04;97553.09;5039974;28;20429;-84
2021/03/29 01:57:49;;;;;;;6.27;2.70;;;;;;;8.47;56.26;97559.00;5039832;28;20511;-84
2021/03/29 02:00:20;;;;;;;4.17;2.73;;;;;;;8.47;55.88;97553.59;5039689;28;20492;-84
2021/03/29 02:02:47;;;;;;;8.67;2.70;;;;;;;8.42;56.12;97556.34;5040360;28;20464;-84
2021/03/29 02:05:15;;;;;;;4.03;2.37;;;;;;;8.33;56.07;97543.88;5040509;28;20447;-84
2021/03/29 02:07:43;;;;;;;3.67;2.93;;;;;;;8.31;56.41;97545.59;5040264;28;20459;-85
2021/03/29 02:10:11;;;;;;;4.60;2.70;;;;;;;8.28;56.20;97547.34;5039834;28;20520;-84
2021/03/29 02:12:38;;;;;;;4.60;2.23;;;;;;;8.25;56.81;97548.28;5039882;28;20420;-84
2021/03/29 02:15:08;;;;;;;5.70;2.77;;;;;;;8.21;56.76;97549.75;5039798;28;20433;-84
2021/03/29 02:17:35;;;;;;;8.07;2.60;;;;;;;8.15;56.88;97549.78;5040244;28;20439;-84
2021/03/29 02:20:08;;;;;;;4.97;2.60;;;;;;;8.19;56.93;97550.28;5040122;28;20442;-84
2021/03/29 02:22:35;;;;;;;6.50;2.20;;;;;;;8.14;57.16;97547.59;5038818;28;21078;-84
2021/03/29 02:25:01;;;;;;;5.53;2.83;;;;;;;8.13;57.05;97543.44;5039571;28;20522;-84
2021/03/29 02:27:28;;;;;;;2.77;2.43;;;;;;;8.13;57.49;97552.25;5039668;28;20443;-84
2021/03/29 02:29:54;;;;;;;7.00;2.20;;;;;;;8.10;56.85;97547.88;5039553;28;20467;-84
2021/03/29 02:32:20;;;;;;;6.80;2.97;;;;;;;8.08;56.70;97550.31;5039882;28;20443;-84
2021/03/29 02:34:47;;;;;;;5.30;2.80;;;;;;;8.04;56.86;97549.84;5039991;28;20501;-84
2021/03/29 02:37:14;;;;;;;7.20;3.20;;;;;;;8.04;57.25;97549.84;5039841;28;20515;-84
2021/03/29 02:39:40;;;;;;;5.77;2.97;;;;;;;8.03;57.27;97549.09;5039411;28;20441;-84
2021/03/29 02:42:07;;;;;;;11.17;2.53;;;;;;;8.00;57.07;97549.34;5039428;28;20495;-84
2021/03/29 02:44:33;;;;;;;5.20;2.40;;;;;;;7.92;57.85;97543.78;5039178;28;20522;-84
2021/03/29 02:47:01;;;;;;;7.53;3.17;;;;;;;7.93;57.94;97550.59;5039661;28;20447;-84
2021/03/29 02:49:27;;;;;;;4.97;3.00;;;;;;;7.88;58.03;97548.66;5039539;28;20544;-84
2021/03/29 02:51:54;;;;;;;7.73;3.03;;;;;;;7.80;58.51;97545.00;5039409;28;20895;-84
2021/03/29 02:54:22;;;;;;;5.00;3.00;;;;;;;7.80;58.77;97555.03;5039333;28;20792;-83
2021/03/29 02:56:50;;;;;;;7.53;3.00;;;;;;;7.73;58.75;97552.84;5039248;28;20466;-83
2021/03/29 02:59:20;;;;;;;4.30;2.80;;;;;;;7.73;58.65;97553.56;5039104;28;20483;-83
2021/03/29 03:01:48;;;;;;;6.97;3.20;;;;;;;7.70;58.59;97553.81;5038764;28;20542;-84
2021/03/29 03:04:16;;;;;;;7.50;2.67;;;;;;;7.68;59.26;97561.63;5041502;28;20489;-83
2021/03/29 03:06:45;;;;;;;6.90;3.23;;;;;;;7.66;59.24;97551.38;5038570;28;20508;-83
2021/03/29 03:09:13;;;;;;;8.10;2.80;;;;;;;7.63;59.41;97554.31;5038642;28;20491;-83
2021/03/29 03:11:44;;;;;;;6.43;3.30;;;;;;;7.59;59.20;97556.50;5039153;28;20431;-84
2021/03/29 03:14:10;;;;;;;5.43;3.13;;;;;;;7.55;59.27;97556.75;5038767;28;20461;-83
2021/03/29 03:16:38;;;;;;;9.53;2.83;;;;;;;7.56;59.48;97555.53;5038798;28;20414;-84
2021/03/29 03:19:04;;;;;;;5.77;3.87;;;;;;;7.54;59.32;97552.63;5038210;28;20457;-83
2021/03/29 03:21:32;;;;;;;3.90;2.97;;;;;;;7.57;59.26;97559.69;5038689;28;20474;-83
2021/03/29 03:23:59;;;;;;;5.77;3.37;;;;;;;7.54;59.07;97564.09;5038112;28;20578;-84
2021/03/29 03:26:26;;;;;;;4.17;2.73;;;;;;;7.54;59.02;97569.47;5038168;28;20500;-84
2021/03/29 03:28:55;;;;;;;7.13;2.93;;;;;;;7.51;59.04;97567.03;5038036;28;20436;-85
2021/03/29 03:31:22;;;;;;;4.27;2.37;;;;;;;7.50;59.38;97568.97;5038063;28;20451;-84
2021/03/29 03:33:49;;;;;;;4.20;2.40;;;;;;;7.55;59.09;97568.22;5038713;28;20443;-84
2021/03/29 03:36:18;;;;;;;5.20;3.17;;;;;;;7.53;59.22;97564.56;5038207;28;20492;-84
2021/03/29 03:38:48;;;;;;;5.20;2.67;;;;;;;7.49;58.97;97566.78;5038162;28;20793;-83
2021/03/29 03:41:18;;;;;;;6.20;3.03;;;;;;;7.49;58.79;97570.19;5037794;28;20882;-84
2021/03/29 03:43:49;;;;;;;12.17;4.97;;;;;;;7.51;59.21;97569.72;5038575;28;20493;-84
2021/03/29 03:46:21;;;;;;;9.90;5.17;;;;;;;7.44;59.93;97565.56;5037864;28;20499;-84
2021/03/29 03:48:47;;;;;;;14.03;5.57;;;;;;;7.37;60.32;97568.72;5038024;28;20774;-83
2021/03/29 03:51:15;;;;;;;11.67;4.17;;;;;;;7.29;60.78;97572.41;5037673;28;20438;-84
2021/03/29 03:53:42;;;;;;;12.70;5.30;;;;;;;7.28;61.51;97568.25;5038236;28;20502;-85
2021/03/29 03:56:09;;;;;;;10.50;5.37;;;;;;;7.24;61.56;97571.16;5037905;28;20463;-84
2021/03/29 03:58:37;;;;;;;6.30;4.37;;;;;;;7.20;62.51;97562.66;5038102;28;20424;-84
2021/03/29 04:01:07;;;;;;;10.90;4.27;;;;;;;7.13;63.03;97571.16;5037727;28;20467;-84
2021/03/29 04:03:35;;;;;;;14.07;4.90;;;;;;;7.10;63.34;97568.72;5038068;28;20517;-84
2021/03/29 04:06:02;;;;;;;8.53;4.60;;;;;;;7.02;63.46;97570.44;5038074;28;20543;-84
2021/03/29 04:08:28;;;;;;;6.70;4.97;;;;;;;6.95;64.37;97582.38;5037556;28;20455;-84
2021/03/29 04:10:55;;;;;;;8.73;4.07;;;;;;;6.90;64.00;97585.75;5037331;28;20467;-84
2021/03/29 04:13:26;;;;;;;5.93;3.53;;;;;;;6.93;64.16;97580.16;5038348;28;20985;-84
2021/03/29 04:15:53;;;;;;;6.33;4.50;;;;;;;6.90;64.70;97581.13;5038350;28;20431;-85
2021/03/29 04:18:19;;;;;;;11.23;4.33;;;;;;;6.91;64.59;97589.91;5038529;28;20475;-85
2021/03/29 04:20:46;;;;;;;13.90;4.10;;;;;;;6.90;65.24;97588.44;5037416;28;20538;-85
2021/03/29 04:23:13;;;;;;;6.17;4.17;;;;;;;6.93;65.27;97584.78;5038071;28;21094;-84
2021/03/29 04:25:39;;;;;;;18.77;4.83;;;;;;;6.99;64.28;97582.84;5046026;28;20412;-83
2021/03/29 04:28:05;;;;;;;5.33;3.80;;;;;;;6.97;64.92;97580.66;5058349;28;20467;-82
2021/03/29 04:30:32;;;;;;;6.00;3.93;;;;;;;7.00;64.54;97587.00;5058047;28;20443;-82
2021/03/29 04:32:58;;;;;;;10.10;3.67;;;;;;;7.02;64.71;97584.56;5057965;28;20546;-83
2021/03/29 04:35:25;;;;;;;8.10;3.93;;;;;;;7.08;64.27;97581.91;5048813;28;20530;-84
2021/03/29 04:37:53;;;;;;;7.53;3.83;;;;;;;7.12;63.74;97585.78;5037732;28;20443;-85
2021/03/29 04:40:23;;;;;;;11.00;3.37;;;;;;;7.16;63.07;97586.31;5037666;28;20894;-84
2021/03/29 04:42:49;;;;;;;5.47;3.87;;;;;;;7.19;63.11;97589.97;5037634;28;21026;-84
2021/03/29 04:45:16;;;;;;;8.97;3.40;;;;;;;7.26;62.17;97581.44;5038285;28;20424;-84
2021/03/29 04:47:42;;;;;;;5.07;2.60;;;;;;;7.39;61.54;97598.50;5038101;28;20932;-83
2021/03/29 04:50:10;;;;;;;5.67;2.77;;;;;;;7.42;61.14;97600.22;5038262;28;20549;-83
2021/03/29 04:52:36;;;;;;;8.23;3.00;;;;;;;7.48;60.70;97598.28;5037947;28;20424;-84
2021/03/29 04:55:04;;;;;;;7.50;2.57;;;;;;;7.55;60.63;97603.16;5038841;28;20553;-84
2021/03/29 04:57:30;;;;;;;3.40;2.50;;;;;;;7.58;60.07;97601.44;5039421;28;20573;-84
2021/03/29 04:59:56;;;;;;;9.03;3.13;;;;;;;7.65;59.27;97605.59;5038772;28;20545;-83
2021/03/29 05:02:22;;;;;;;4.30;2.30;;;;;;;7.73;59.32;97611.94;5038011;28;20498;-83
2021/03/29 05:04:48;;;;;;;5.50;2.97;;;;;;;7.78;58.84;97608.50;5038618;28;20418;-84
2021/03/29 05:07:14;;;;;;;9.13;3.63;;;;;;;7.84;58.62;97609.97;5038856;28;20432;-85
2021/03/29 05:09:41;;;;;;;5.50;2.90;;;;;;;7.86;58.64;97615.56;5038450;28;20550;-84
2021/03/29 05:12:10;;;;;;;7.17;2.90;;;;;;;7.89;58.34;97603.13;5039305;28;20454;-85
2021/03/29 05:14:38;;;;;;;6.70;3.23;;;;;;;7.92;58.19;97612.91;5038069;28;20513;-85
2021/03/29 05:17:05;;;;;;;7.33;3.20;;;;;;;8.02;58.38;97606.75;5038077;28;20856;-85
2021/03/29 05:19:31;;;;;;;7.90;3.40;;;;;;;8.07;59.12;97614.09;5038605;28;20485;-84
2021/03/29 05:21:58;;;;;;;8.07;3.27;;;;;;;8.19;59.20;97612.09;5038339;28;20446;-85
2021/03/29 05:24:24;;;;;;;10.53;4.00;;;;;;;8.21;59.54;97619.66;5038659;28;20507;-85
2021/03/29 05:26:50;;;;;;;5.13;3.93;;;;;;;8.25;59.52;97618.19;5039094;28;20481;-85
2021/03/29 05:29:17;;;;;;;9.30;4.83;;;;;;;8.31;59.75;97621.63;5038113;28;20421;-84
2021/03/29 05:31:44;;;;;;;7.70;3.57;;;;;;;8.34;59.60;97630.66;5039445;28;20497;-85
2021/03/29 05:34:11;;;;;;;9.87;4.30;;;;;;;8.47;59.39;97628.91;5042096;28;20505;-86
2021/03/29 05:36:39;;;;;;;5.70;3.20;;;;;;;8.45;59.62;97636.03;5044066;28;20458;-85
2021/03/29 05:39:06;;;;;;;5.20;3.67;;;;;;;8.40;59.86;97629.44;5043174;28;20549;-85
2021/03/29 05:41:32;;;;;;;10.10;4.50;;;;;;;8.41;59.55;97636.28;5042158;28;20474;-85
2021/03/29 05:43:59;;;;;;;9.43;4.30;;;;;;;8.49;59.88;97639.91;5042334;28;20486;-84
2021/03/29 05:46:26;;;;;;;9.20;4.10;;;;;;;8.52;59.11;97633.53;5040988;28;20434;-85
2021/03/29 05:48:53;;;;;;;10.27;4.50;;;;;;;8.50;59.08;97633.31;5042181;28;20445;-86
2021/03/29 05:51:19;;;;;;;10.50;4.63;;;;;;;8.48;58.88;97625.00;5041668;28;20529;-85
2021/03/29 05:53:45;;;;;;;12.23;3.33;;;;;;;8.59;58.64;97635.72;5041584;28;20491;-85
2021/03/29 05:56:13;;;;;;;10.13;3.50;;;;;;;8.70;57.99;97637.66;5031913;28;20944;-86
2021/03/29 05:58:42;;;;;;;10.33;4.00;;;;;;;9.07;57.65;97635.25;5035995;28;20459;-86
2021/03/29 06:01:09;;;;;;;8.53;3.87;;;;;;;9.41;56.00;97632.34;5025793;28;20571;-86
2021/03/29 06:03:38;;;;;;;7.27;4.30;;;;;;;9.53;56.06;97641.81;5024514;28;20523;-86
2021/03/29 06:06:19;;;;;;;11.10;4.07;;;;;;;9.69;55.44;97638.25;5042148;28;20443;-84
2021/03/29 06:08:47;;;;;;;9.80;3.70;;;;;;;9.71;54.66;97646.56;5041761;28;20390;-85
2021/03/29 06:11:32;;;;;;;10.63;4.00;;;;;;;9.67;54.97;97652.25;5042236;28;20478;-85
2021/03/29 06:14:14;;;;;;;6.47;4.00;;;;;;;9.56;54.94;97663.09;5041054;28;20423;-84
2021/03/29 06:17:02;;;;;;;7.13;3.87;;;;;;;9.55;55.11;97653.53;5041390;28;20424;-85
2021/03/29 06:19:48;;;;;;;7.67;3.80;;;;;;;9.61;54.86;97656.97;5040930;28;20469;-84
2021/03/29 06:22:24;;;;;;;9.33;4.63;;;;;;;9.63;54.61;97659.13;5040640;28;20406;-85
2021/03/29 06:25:15;;;;;;;5.87;3.80;;;;;;;9.60;54.71;97662.84;5041053;28;20534;-84
2021/03/29 06:27:44;;;;;;;10.00;3.93;;;;;;;9.62;54.81;97669.19;5041581;28;20446;-85
2021/03/29 06:30:13;;;;;;;7.97;3.70;;;;;;;9.72;55.02;97669.59;5041763;28;20445;-84
2021/03/29 06:32:51;;;;;;;7.30;3.70;;;;;;;9.99;55.19;97678.72;5041082;28;20510;-85
2021/03/29 06:35:20;;;;;;;7.20;4.30;;;;;;;10.23;54.21;97681.47;5042203;28;20456;-83
2021/03/29 06:37:46;;;;;;;8.00;4.37;;;;;;;10.21;54.53;97681.94;5041938;28;20592;-84
2021/03/29 06:40:14;;;;;;;7.67;4.80;;;;;;;10.29;54.43;97690.22;5041712;28;20459;-84
2021/03/29 06:42:40;;;;;;;6.80;4.70;;;;;;;10.10;55.36;97697.47;5041294;28;20824;-84
2021/03/29 06:45:14;;;;;;;6.80;4.27;;;;;;;9.94;55.94;97695.66;5041426;28;20417;-84
2021/03/29 06:47:41;;;;;;;10.40;4.80;;;;;;;9.95;56.54;97697.13;5042138;28;20497;-85
2021/03/29 06:50:22;;;;;;;8.40;4.80;;;;;;;9.95;56.35;97700.56;5041591;28;20455;-85
2021/03/29 06:52:49;;;;;;;12.20;4.70;;;;;;;9.98;56.69;97704.19;5041439;28;20420;-85
2021/03/29 06:55:23;;;;;;;10.67;4.63;;;;;;;10.10;56.49;97705.56;5042606;28;20481;-83
2021/03/29 06:58:00;;;;;;;7.37;4.40;;;;;;;10.07;55.54;97710.00;5043248;28;20427;-82
2021/03/29 07:00:31;;;;;;;8.77;5.53;;;;;;;10.28;54.46;97715.00;5042767;28;20433;-83
2021/03/29 07:03:00;;;;;;;6.67;4.03;;;;;;;10.24;54.79;97706.47;5043214;28;20466;-83
2021/03/29 07:05:26;;;;;;;5.63;3.60;;;;;;;10.20;54.87;97712.13;5024812;28;20486;-83
2021/03/29 07:07:53;;;;;;;7.93;4.37;;;;;;;10.31;54.33;97709.31;5024712;28;20513;-83
2021/03/29 07:10:21;;;;;;;6.40;3.90;;;;;;;10.43;54.54;97705.28;5024174;28;20443;-84
2021/03/29 07:12:48;;;;;;;7.30;4.20;;;;;;;10.55;54.51;97703.97;5023357;28;20407;-83
2021/03/29 07:15:15;;;;;;;10.20;3.97;;;;;;;10.72;54.33;97709.16;5023192;28;20508;-81
2021/03/29 07:17:43;;;;;;;7.90;4.37;;;;;;;10.91;53.44;97709.94;5034316;28;20444;-86
2021/03/29 07:20:12;;;;;;;12.33;4.90;;;;;;;11.04;53.40;97712.00;5035561;23;20540;-88
2021/03/29 07:22:40;;;;;;;6.77;4.07;;;;;;;11.27;52.59;97700.41;5023773;28;20467;-89
2021/03/29 07:25:09;;;;;;;7.83;4.50;;;;;;;11.50;52.11;97708.91;5024802;28;20413;-88
2021/03/29 07:27:43;;;;;;;13.87;5.50;;;;;;;11.72;51.46;97711.34;5037798;28;20428;-86
2021/03/29 07:30:11;;;;;;;10.93;5.40;;;;;;;12.39;50.54;97718.38;5038720;28;20447;-90
2021/03/29 07:32:54;;;;;;;8.10;4.13;;;;;;;13.08;48.52;97718.09;5037807;28;20415;-88
2021/03/29 07:35:21;;;;;;;11.73;4.00;;;;;;;13.27;47.92;97718.69;4993958;28;20430;-90
2021/03/29 07:37:55;;;;;;;6.73;4.20;;;;;;;13.31;48.07;97729.94;4987526;28;20414;-88
2021/03/29 07:40:41;;;;;;;16.33;5.20;;;;;;;13.26;48.34;97732.78;4999434;28;20458;-86
2021/03/29 07:43:12;;;;;;;9.10;4.27;;;;;;;13.13;48.73;97733.50;4999383;28;20445;-85
2021/03/29 07:45:46;;;;;;;9.23;4.10;;;;;;;13.04;48.66;97731.22;4993897;28;20443;-87
2021/03/29 07:48:31;;;;;;;14.13;5.37;;;;;;;12.90;49.08;97738.59;4986616;28;20434;-91
2021/03/29 07:50:58;;;;;;;9.33;4.07;;;;;;;13.06;48.68;97738.84;4986657;28;20454;-88
2021/03/29 07:53:38;;;;;;;9.27;4.10;;;;;;;13.31;47.95;97735.34;4984679;28;20412;-88
2021/03/29 07:56:06;;;;;;;9.07;4.23;;;;;;;13.48;47.61;97739.72;5005622;28;20467;-88
2021/03/29 07:58:43;;;;;;;19.30;5.00;;;;;;;13.65;47.61;97740.81;5010954;28;20513;-86
2021/03/29 08:01:10;;;;;;;7.23;4.17;;;;;;;13.86;47.39;97743.56;5007609;28;20469;-89
2021/03/29 08:03:40;;;;;;;15.50;4.73;;;;;;;14.15;47.02;97744.38;5004727;28;20503;-87
2021/03/29 08:06:07;;;;;;;13.83;5.40;;;;;;;14.80;45.83;97756.81;5004718;28;20451;-89
2021/03/29 08:08:41;;;;;;;9.63;5.67;;;;;;;15.31;44.84;97751.47;5005624;28;20531;-89
2021/03/29 08:11:10;;;;;;;19.03;5.00;;;;;;;15.29;44.94;97754.00;5009070;28;20830;-90
2021/03/29 08:13:38;;;;;;;10.93;4.40;;;;;;;15.19;45.08;97751.03;5004372;28;20404;-89
2021/03/29 08:16:06;;;;;;;17.57;6.30;;;;;;;15.18;45.59;97754.31;5004113;28;20440;-88
2021/03/29 08:19:05;;;;;;;12.93;5.43;;;;;;;15.72;44.77;97756.72;5005278;28;20507;-86
2021/03/29 08:21:49;;;;;;;7.77;3.93;;;;;;;16.16;42.60;97762.06;5005858;28;20465;-85
2021/03/29 08:24:25;;;;;;;11.00;5.07;;;;;;;16.10;43.26;97762.22;5003438;28;20477;-87
2021/03/29 08:26:54;;;;;;;7.43;4.40;;;;;;;16.30;42.82;97757.88;5004264;28;20409;-88
2021/03/29 08:29:29;;;;;;;14.03;4.97;;;;;;;16.23;42.61;97766.78;5003928;28;20487;-86
2021/03/29 08:32:13;;;;;;;14.80;4.93;;;;;;;16.24;42.65;97768.25;5003814;28;20433;-87
2021/03/29 08:35:01;;;;;;;7.63;4.53;;;;;;;15.73;43.47;97763.59;5004060;28;20403;-87
2021/03/29 08:37:30;;;;;;;12.80;5.57;;;;;;;15.63;44.27;97759.94;4997723;28;20428;-86
2021/03/29 08:39:58;;;;;;;14.23;4.17;;;;;;;15.56;44.43;97754.50;5004901;28;20509;-86
2021/03/29 08:42:27;;;;;;;17.30;5.73;;;;;;;15.63;44.60;97756.53;5001790;28;20528;-87
2021/03/29 08:44:54;;;;;;;15.17;5.83;;;;;;;15.65;44.94;97767.59;5002021;28;20479;-86
2021/03/29 08:47:22;;;;;;;18.20;5.67;;;;;;;15.73;45.18;97769.06;5002700;28;20429;-87
2021/03/29 08:49:54;;;;;;;14.30;5.30;;;;;;;15.79;45.05;97771.59;5001939;28;20465;-87
2021/03/29 08:52:21;;;;;;;6.67;4.27;;;;;;;15.87;44.64;97766.91;5003786;28;20482;-87
2021/03/29 08:54:49;;;;;;;10.57;4.83;;;;;;;15.95;44.30;97765.66;5001025;28;20417;-85
2021/03/29 08:57:16;;;;;;;14.53;4.80;;;;;;;15.96;44.17;97769.84;5002667;28;20445;-86
2021/03/29 08:59:43;;;;;;;10.73;4.50;;;;;;;15.98;44.18;97770.03;5001605;28;20469;-86
2021/03/29 09:02:13;;;;;;;10.73;4.10;;;;;;;16.02;44.36;97772.38;5001800;28;20444;-88
2021/03/29 09:04:51;;;;;;;9.60;4.50;;;;;;;16.07;43.83;97769.50;5001779;28;20571;-86
2021/03/29 09:07:17;;;;;;;10.20;3.53;;;;;;;16.01;44.68;97773.66;5005454;28;20436;-87
2021/03/29 09:09:44;;;;;;;12.70;4.63;;;;;;;16.18;43.50;97773.13;5005181;28;20443;-86
2021/03/29 09:12:24;;;;;;;9.83;3.63;;;;;;;16.42;42.64;97778.06;5004240;28;20437;-89
2021/03/29 09:14:52;;;;;;;8.70;3.53;;;;;;;16.67;41.75;97772.78;5006074;28;20425;-88
2021/03/29 09:17:27;;;;;;;9.27;3.40;;;;;;;16.69;41.85;97773.72;5005583;28;20508;-89
2021/03/29 09:19:54;;;;;;;9.47;3.50;;;;;;;16.91;42.07;97770.25;5006830;28;20945;-83
2021/03/29 09:22:36;;;;;;;6.53;2.60;;;;;;;17.05;39.74;97771.47;5006544;28;20480;-84
2021/03/29 09:25:04;;;;;;;8.30;2.00;;;;;;;17.06;36.85;97772.94;5007048;28;20429;-88
2021/03/29 09:27:40;;;;;;;7.37;2.40;;;;;;;17.06;37.82;97781.13;5005003;28;20482;-86
2021/03/29 09:30:13;;;;;;;8.07;2.63;;;;;;;16.97;37.98;97780.94;5005992;28;20559;-91
2021/03/29 09:32:41;;;;;;;5.60;1.90;;;;;;;17.11;38.27;97779.44;5007349;28;20517;-89
2021/03/29 09:35:11;;;;;;;6.53;2.60;;;;;;;17.18;38.01;97777.97;5007661;28;20437;-89
2021/03/29 09:37:46;;;;;;;6.23;2.63;;;;;;;17.26;37.89;97773.25;5008691;28;20472;-90
2021/03/29 09:40:13;;;;;;;10.50;3.27;;;;;;;17.34;37.35;97780.13;5008140;28;20457;-91
2021/03/29 09:42:41;;;;;;;10.80;2.60;;;;;;;17.34;37.28;97782.84;5011363;28;20456;-89
2021/03/29 09:45:25;;;;;;;7.20;2.47;;;;;;;17.32;37.71;97785.38;5008140;28;20429;-90
2021/03/29 09:48:02;;;;;;;9.33;2.77;;;;;;;17.12;37.32;97789.81;5008327;28;20948;-91
2021/03/29 09:50:30;;;;;;;6.93;2.90;;;;;;;17.21;37.38;97785.78;5008811;28;20449;-91
2021/03/29 09:53:08;;;;;;;11.73;2.33;;;;;;;17.03;37.42;97779.47;5007057;28;20480;-86
2021/03/29 09:55:43;;;;;;;11.37;3.00;;;;;;;17.26;37.41;97786.88;5005290;28;20452;-86
2021/03/29 09:58:23;;;;;;;8.07;2.60;;;;;;;17.39;36.93;97784.63;5008360;28;20937;-90
2021/03/29 10:00:58;;;;;;;3.83;2.70;;;;;;;17.34;36.67;97782.84;5008268;28;20518;-93
2021/03/29 10:03:25;;;;;;;12.10;2.80;;;;;;;17.39;36.62;97787.38;5006899;28;20471;-88
2021/03/29 10:05:52;;;;;;;4.13;1.80;;;;;;;17.54;36.88;97778.41;5006805;28;20452;-87
2021/03/29 10:08:29;;;;;;;6.03;2.13;;;;;;;17.67;36.45;97780.22;5004449;28;20821;-87
2021/03/29 10:11:04;;;;;;;5.13;2.33;;;;;;;17.64;35.68;97779.28;5003616;28;20447;-88
2021/03/29 10:13:33;;;;;;;6.60;2.83;;;;;;;17.65;36.16;97786.22;5003839;28;20445;-88
2021/03/29 10:16:29;;;;;;;;;;;;;;;;;;;;;
2021/03/29 10:19:05;;;;;;;5.70;2.50;;;;;;;17.76;34.61;97774.16;5004834;28;20564;-88
2021/03/29 10:21:33;;;;;;;6.13;2.23;;;;;;;17.75;34.78;97773.41;5013706;28;20451;-90
2021/03/29 10:24:13;;;;;;;5.67;2.00;;;;;;;17.67;35.09;97772.72;5020228;28;20495;-88
2021/03/29 10:26:39;;;;;;;8.03;2.47;;;;;;;17.74;35.53;97773.97;5019832;28;20433;-89
2021/03/29 10:29:14;;;;;;;5.80;2.30;;;;;;;17.89;34.65;97774.59;5009412;28;20486;-92
2021/03/29 10:31:43;;;;;;;4.43;2.30;;;;;;;18.05;34.50;97773.25;5011993;28;20440;-91
2021/03/29 10:34:12;;;;;;;5.20;2.10;;;;;;;18.20;33.91;97775.13;5007987;28;20453;-90
2021/03/29 10:36:38;;;;;;;5.17;2.50;;;;;;;18.26;33.96;97766.75;5006181;28;20982;-89
2021/03/29 10:39:06;;;;;;;7.37;1.97;;;;;;;18.24;34.02;97764.53;5005217;28;20502;-89
2021/03/29 10:41:34;;;;;;;6.57;2.17;;;;;;;18.29;33.86;97760.16;5007161;28;20485;-90
2021/03/29 10:44:00;;;;;;;3.93;2.00;;;;;;;18.33;33.50;97763.19;5008590;28;20496;-89
2021/03/29 10:46:28;;;;;;;6.73;2.47;;;;;;;18.38;33.58;97756.81;5011285;28;20460;-92
2021/03/29 10:49:02;;;;;;;9.50;2.43;;;;;;;18.44;33.59;97766.22;5009409;28;20577;-89
2021/03/29 10:51:28;;;;;;;5.70;2.40;;;;;;;18.50;33.10;97761.28;5007631;28;20433;-89
2021/03/29 10:54:02;;;;;;;5.83;1.90;;;;;;;18.46;33.23;97763.66;5008707;28;20430;-89
2021/03/29 10:56:28;;;;;;;8.90;2.93;;;;;;;18.49;33.21;97762.56;5006823;28;20910;-89
2021/03/29 10:58:54;;;;;;;5.97;2.70;;;;;;;18.60;33.35;97761.38;5007916;28;20545;-90
2021/03/29 11:01:22;;;;;;;7.23;2.43;;;;;;;18.75;32.45;97757.78;5011556;28;20445;-91
2021/03/29 11:03:48;;;;;;;5.17;1.90;;;;;;;18.74;32.50;97759.78;5009675;28;20484;-89
2021/03/29 11:06:15;;;;;;;4.00;2.30;;;;;;;18.75;32.69;97749.56;5006972;28;20925;-90
2021/03/29 11:08:45;;;;;;;8.37;2.30;;;;;;;18.83;32.48;97761.88;5005969;28;20429;-88
2021/03/29 11:11:12;;;;;;;7.23;2.07;;;;;;;18.92;32.60;97761.25;5007136;28;20548;-89
2021/03/29 11:13:38;;;;;;;4.27;2.60;;;;;;;19.04;30.75;97764.25;5003730;28;20484;-89
2021/03/29 11:16:14;;;;;;;3.10;1.57;;;;;;;18.88;31.10;97758.19;5003344;28;20452;-89
2021/03/29 11:18:40;;;;;;;5.03;2.57;;;;;;;19.00;31.89;97752.97;5003147;28;20910;-89
2021/03/29 11:21:11;;;;;;;4.03;1.83;;;;;;;19.11;32.05;97755.94;5003150;28;20495;-89
2021/03/29 11:23:38;;;;;;;9.60;2.73;;;;;;;19.21;30.47;97756.00;5002155;28;20469;-89
2021/03/29 11:26:05;;;;;;;5.47;2.10;;;;;;;19.15;30.38;97753.53;5002043;28;20433;-89
2021/03/29 11:28:32;;;;;;;8.07;2.10;;;;;;;19.10;30.06;97751.78;5003278;28;20501;-88
2021/03/29 11:30:59;;;;;;;3.47;1.87;;;;;;;19.11;30.28;97749.72;5007564;28;20465;-88
2021/03/29 11:33:25;;;;;;;7.53;3.00;;;;;;;19.11;30.03;97741.53;5010673;28;20438;-89
2021/03/29 11:35:55;;;;;;;8.13;1.77;;;;;;;19.13;29.88;97744.44;5005918;28;20480;-88
2021/03/29 11:38:21;;;;;;;4.90;2.47;;;;;;;19.14;30.58;97746.59;5006655;28;20793;-88
2021/03/29 11:40:48;;;;;;;3.57;2.40;;;;;;;19.16;29.94;97746.03;5005528;28;20472;-89
2021/03/29 11:43:19;;;;;;;4.10;2.20;;;;;;;19.20;30.59;97744.34;5005751;28;21001;-89
2021/03/29 11:45:45;;;;;;;9.13;2.27;;;;;;;19.26;29.50;97738.63;5007218;28;20473;-89
2021/03/29 11:48:12;;;;;;;5.07;2.00;;;;;;;19.41;29.96;97738.47;5006587;28;20480;-89